createdAt,value
2022-10-16T00:02:20.009Z,7.72
2022-10-16T00:04:47.584Z,7.55
2022-10-16T00:07:15.129Z,7.07
2022-10-16T00:09:44.064Z,6.95
2022-10-16T00:12:11.628Z,7.65
2022-10-16T00:14:41.806Z,7.63
2022-10-16T00:17:09.355Z,8.02
2022-10-16T00:19:36.923Z,6.72
2022-10-16T00:22:04.424Z,7.10
2022-10-16T00:24:51.881Z,7.88
2022-10-16T00:27:19.641Z,6.95
2022-10-16T00:29:47.268Z,7.00
2022-10-16T00:32:14.827Z,7.40
2022-10-16T00:34:42.376Z,7.43
2022-10-16T00:37:09.909Z,7.45
2022-10-16T00:39:37.565Z,6.80
2022-10-16T00:42:06.659Z,7.18
2022-10-16T00:44:44.823Z,7.40
2022-10-16T00:47:13.476Z,7.70
2022-10-16T00:49:41.019Z,7.65
2022-10-16T00:52:08.637Z,7.50
2022-10-16T00:54:36.272Z,6.90
2022-10-16T00:57:05.411Z,6.82
2022-10-16T00:59:35.461Z,6.25
2022-10-16T01:02:04.049Z,6.00
2022-10-16T01:04:33.996Z,6.05
2022-10-16T01:07:07.809Z,5.70
2022-10-16T01:09:38.799Z,5.35
2022-10-16T01:12:11.213Z,4.90
2022-10-16T01:14:42.694Z,5.22
2022-10-16T01:17:12.400Z,4.80
2022-10-16T01:19:58.530Z,4.93
2022-10-16T01:22:27.992Z,4.80
2022-10-16T01:24:56.711Z,4.05
2022-10-16T01:27:27.644Z,3.95
2022-10-16T01:29:56.679Z,4.55
2022-10-16T01:32:27.361Z,3.53
2022-10-16T01:34:57.368Z,3.50
2022-10-16T01:37:29.894Z,3.10
2022-10-16T01:40:00.196Z,3.60
2022-10-16T01:42:31.687Z,3.95
2022-10-16T01:45:00.106Z,3.35
2022-10-16T01:47:29.299Z,3.08
2022-10-16T01:49:58.525Z,3.22
2022-10-16T01:52:28.819Z,3.08
2022-10-16T01:54:57.746Z,2.80
2022-10-16T01:57:27.116Z,3.00
2022-10-16T01:59:58.288Z,3.08
2022-10-16T02:02:29.109Z,3.13
2022-10-16T02:04:58.700Z,2.97
2022-10-16T02:07:26.294Z,2.85
2022-10-16T02:09:53.796Z,3.08
2022-10-16T02:12:25.992Z,3.00
2022-10-16T02:14:53.994Z,2.72
2022-10-16T02:17:23.849Z,3.42
2022-10-16T02:19:52.986Z,3.38
2022-10-16T02:22:24.252Z,2.70
2022-10-16T02:24:55.631Z,2.70
2022-10-16T02:27:26.572Z,3.00
2022-10-16T02:29:59.538Z,3.30
2022-10-16T02:32:31.668Z,2.90
2022-10-16T02:35:00.278Z,3.38
2022-10-16T02:37:28.660Z,2.70
2022-10-16T02:39:56.884Z,3.05
2022-10-16T02:42:29.256Z,2.72
2022-10-16T02:44:56.776Z,2.90
2022-10-16T02:47:24.301Z,3.28
2022-10-16T02:49:53.241Z,2.80
2022-10-16T02:52:20.789Z,2.97
2022-10-16T02:54:48.416Z,2.40
2022-10-16T02:57:16.456Z,3.33
2022-10-16T02:59:44.040Z,2.83
2022-10-16T03:02:11.716Z,2.97
2022-10-16T03:04:39.536Z,2.60
2022-10-16T03:07:08.493Z,2.42
2022-10-16T03:09:36.148Z,2.83
2022-10-16T03:12:03.728Z,2.70
2022-10-16T03:14:31.331Z,2.20
2022-10-16T03:16:58.877Z,2.55
2022-10-16T03:19:26.438Z,2.53
2022-10-16T03:21:53.989Z,2.05
2022-10-16T03:24:22.851Z,2.25
2022-10-16T03:26:50.341Z,2.15
2022-10-16T03:29:18.116Z,2.40
2022-10-16T03:31:45.677Z,2.30
2022-10-16T03:34:13.436Z,2.47
2022-10-16T03:36:41.027Z,2.50
2022-10-16T03:39:08.635Z,2.05
2022-10-16T03:41:37.614Z,2.50
2022-10-16T03:44:05.185Z,2.13
2022-10-16T03:46:32.783Z,2.05
2022-10-16T03:49:00.511Z,1.98
2022-10-16T03:51:28.170Z,1.85
2022-10-16T03:53:55.652Z,1.90
2022-10-16T03:56:23.182Z,2.30
2022-10-16T03:58:52.037Z,2.63
2022-10-16T04:01:19.573Z,1.90
2022-10-16T04:03:47.119Z,2.10
2022-10-16T04:06:14.671Z,1.95
2022-10-16T04:08:44.255Z,2.00
2022-10-16T04:11:11.964Z,2.40
2022-10-16T04:13:39.631Z,2.03
2022-10-16T04:16:08.630Z,1.98
2022-10-16T04:18:36.247Z,2.10
2022-10-16T04:21:04.608Z,2.20
2022-10-16T04:23:32.520Z,2.10
2022-10-16T04:26:00.115Z,1.85
2022-10-16T04:28:28.310Z,1.90
2022-10-16T04:30:56.138Z,2.40
2022-10-16T04:33:25.119Z,2.10
2022-10-16T04:35:57.856Z,1.92
2022-10-16T04:38:25.411Z,2.55
2022-10-16T04:40:52.928Z,2.13
2022-10-16T04:43:20.601Z,2.30
2022-10-16T04:45:48.179Z,1.77
2022-10-16T04:48:15.728Z,1.90
2022-10-16T04:50:44.591Z,1.67
2022-10-16T04:53:12.326Z,2.05
2022-10-16T04:55:39.959Z,1.70
2022-10-16T04:58:07.468Z,2.05
2022-10-16T05:00:35.054Z,1.98
2022-10-16T05:03:02.650Z,2.50
2022-10-16T05:05:30.245Z,2.13
2022-10-16T05:07:59.270Z,2.20
2022-10-16T05:10:26.988Z,2.53
2022-10-16T05:12:54.606Z,2.35
2022-10-16T05:15:22.515Z,2.22
2022-10-16T05:17:53.785Z,2.17
2022-10-16T05:20:21.404Z,1.90
2022-10-16T05:22:49.056Z,1.90
2022-10-16T05:25:18.073Z,2.53
2022-10-16T05:27:45.705Z,2.10
2022-10-16T05:30:13.274Z,1.85
2022-10-16T05:32:40.954Z,2.22
2022-10-16T05:35:11.826Z,2.30
2022-10-16T05:37:40.393Z,2.22
2022-10-16T05:40:08.577Z,2.50
2022-10-16T05:42:38.104Z,2.17
2022-10-16T05:45:06.195Z,2.28
2022-10-16T05:47:33.794Z,2.72
2022-10-16T05:50:01.363Z,3.13
2022-10-16T05:52:28.908Z,2.35
2022-10-16T05:54:56.560Z,2.90
2022-10-16T05:57:24.263Z,2.88
2022-10-16T05:59:53.282Z,2.92
2022-10-16T06:02:20.797Z,3.00
2022-10-16T06:04:48.318Z,3.42
2022-10-16T06:07:16.016Z,2.85
2022-10-16T06:09:43.619Z,2.92
2022-10-16T06:12:11.193Z,2.95
2022-10-16T06:14:38.886Z,3.10
2022-10-16T06:17:07.970Z,3.33
2022-10-16T06:19:35.580Z,3.20
2022-10-16T06:22:05.184Z,3.25
2022-10-16T06:24:32.821Z,3.47
2022-10-16T06:27:00.400Z,3.65
2022-10-16T06:29:27.933Z,3.15
2022-10-16T06:31:55.429Z,3.13
2022-10-16T06:34:24.471Z,3.78
2022-10-16T06:36:52.031Z,3.83
2022-10-16T06:39:19.584Z,3.83
2022-10-16T06:41:47.168Z,3.60
2022-10-16T06:44:16.647Z,3.63
2022-10-16T06:46:44.148Z,3.80
2022-10-16T06:49:11.705Z,3.38
2022-10-16T06:51:43.284Z,3.70
2022-10-16T06:54:11.345Z,3.67
2022-10-16T06:56:39.103Z,2.92
2022-10-16T06:59:06.689Z,3.05
2022-10-16T07:01:34.578Z,3.33
2022-10-16T07:04:02.849Z,3.10
2022-10-16T07:06:32.751Z,17.80
2022-10-16T07:09:02.739Z,3.63
2022-10-16T07:11:30.325Z,2.90
2022-10-16T07:13:57.851Z,2.97
2022-10-16T07:16:26.438Z,2.80
2022-10-16T07:18:59.057Z,3.33
2022-10-16T07:21:27.469Z,3.65
2022-10-16T07:23:55.383Z,3.28
2022-10-16T07:26:24.404Z,3.65
2022-10-16T07:28:52.116Z,3.55
2022-10-16T07:31:21.382Z,3.47
2022-10-16T07:33:49.208Z,3.63
2022-10-16T07:36:17.281Z,3.53
2022-10-16T07:38:45.065Z,3.00
2022-10-16T07:41:13.553Z,4.05
2022-10-16T07:43:42.674Z,3.20
2022-10-16T07:46:10.172Z,4.47
2022-10-16T07:48:37.738Z,3.30
2022-10-16T07:51:06.296Z,4.13
2022-10-16T07:53:34.511Z,3.53
2022-10-16T07:56:02.561Z,3.53
2022-10-16T07:58:30.668Z,3.70
2022-10-16T08:00:59.874Z,3.88
2022-10-16T08:03:27.523Z,4.15
2022-10-16T08:05:55.302Z,4.30
2022-10-16T08:08:22.950Z,3.47
2022-10-16T08:10:50.540Z,3.60
2022-10-16T08:13:18.277Z,3.83
2022-10-16T08:15:45.841Z,3.88
2022-10-16T08:18:15.544Z,4.13
2022-10-16T08:20:43.548Z,4.07
2022-10-16T08:23:11.610Z,3.47
2022-10-16T08:25:40.299Z,3.92
2022-10-16T08:28:08.144Z,4.10
2022-10-16T08:30:36.091Z,3.65
2022-10-16T08:33:04.089Z,4.28
2022-10-16T08:35:32.940Z,3.80
2022-10-16T08:38:00.444Z,3.85
2022-10-16T08:40:29.562Z,3.70
2022-10-16T08:43:18.234Z,3.58
2022-10-16T08:45:57.916Z,3.83
2022-10-16T08:48:29.551Z,3.95
2022-10-16T08:50:58.663Z,4.38
2022-10-16T08:53:29.272Z,3.60
2022-10-16T08:55:56.771Z,3.90
2022-10-16T08:58:25.288Z,3.80
2022-10-16T09:00:55.692Z,4.10
2022-10-16T09:03:30.395Z,3.90
2022-10-16T09:06:04.822Z,3.60
2022-10-16T09:08:36.570Z,3.92
2022-10-16T09:11:09.961Z,3.70
2022-10-16T09:13:42.449Z,4.10
2022-10-16T09:16:14.750Z,4.10
2022-10-16T09:18:45.753Z,3.70
2022-10-16T09:21:17.721Z,3.47
2022-10-16T09:23:45.569Z,3.83
2022-10-16T09:26:14.539Z,3.80
2022-10-16T09:28:42.604Z,3.60
2022-10-16T09:31:15.362Z,3.50
2022-10-16T09:33:43.196Z,3.58
2022-10-16T09:36:11.760Z,3.22
2022-10-16T09:38:40.769Z,18.45
2022-10-16T09:41:15.583Z,3.63
2022-10-16T09:43:48.816Z,3.78
2022-10-16T09:46:24.247Z,3.25
2022-10-16T09:48:52.784Z,3.63
2022-10-16T09:51:21.648Z,3.47
2022-10-16T09:53:50.705Z,3.90
2022-10-16T09:56:25.257Z,3.30
2022-10-16T09:58:53.871Z,2.85
2022-10-16T10:01:22.709Z,3.33
2022-10-16T10:03:51.277Z,3.10
2022-10-16T10:06:26.391Z,3.08
2022-10-16T10:09:00.232Z,2.90
2022-10-16T10:11:38.290Z,3.58
2022-10-16T10:14:06.442Z,3.42
2022-10-16T10:16:34.011Z,2.90
2022-10-16T10:19:01.928Z,3.17
2022-10-16T10:21:29.665Z,3.13
2022-10-16T10:23:58.867Z,2.90
2022-10-16T10:26:29.040Z,2.92
2022-10-16T10:29:01.713Z,3.35
2022-10-16T10:31:32.896Z,3.35
2022-10-16T10:34:02.851Z,3.35
2022-10-16T10:36:32.244Z,3.55
2022-10-16T10:39:01.944Z,3.38
2022-10-16T10:41:38.772Z,2.78
2022-10-16T10:44:13.089Z,2.70
2022-10-16T10:46:45.545Z,2.70
2022-10-16T10:49:31.435Z,3.60
2022-10-16T10:52:03.869Z,4.70
2022-10-16T10:54:37.788Z,2.95
2022-10-16T10:57:10.412Z,2.97
2022-10-16T10:59:48.520Z,3.08
2022-10-16T11:02:20.044Z,2.78
2022-10-16T11:04:57.008Z,2.90
2022-10-16T11:07:27.305Z,2.83
2022-10-16T11:09:59.660Z,2.95
2022-10-16T11:12:28.969Z,2.45
2022-10-16T11:14:59.129Z,2.90
2022-10-16T11:17:29.103Z,3.00
2022-10-16T11:19:59.052Z,2.95
2022-10-16T11:22:29.191Z,2.92
2022-10-16T11:25:03.715Z,2.70
2022-10-16T11:27:36.580Z,3.10
2022-10-16T11:30:06.098Z,2.88
2022-10-16T11:32:35.899Z,2.97
2022-10-16T11:35:07.030Z,2.88
2022-10-16T11:37:36.126Z,2.95
2022-10-16T11:40:12.610Z,2.58
2022-10-16T11:42:43.832Z,2.55
2022-10-16T11:45:19.037Z,2.80
2022-10-16T11:47:59.246Z,2.28
2022-10-16T11:50:30.664Z,2.60
2022-10-16T11:53:03.467Z,2.90
2022-10-16T11:55:34.428Z,2.25
2022-10-16T11:58:04.812Z,2.30
2022-10-16T12:00:36.335Z,2.05
2022-10-16T12:03:11.486Z,2.55
2022-10-16T12:05:57.040Z,2.50
2022-10-16T12:08:25.136Z,2.25
2022-10-16T12:10:56.125Z,2.25
2022-10-16T12:13:31.400Z,2.28
2022-10-16T12:16:06.359Z,2.30
2022-10-16T12:18:33.946Z,2.40
2022-10-16T12:21:06.399Z,2.63
2022-10-16T12:23:34.500Z,2.50
2022-10-16T12:26:04.203Z,2.33
2022-10-16T12:28:33.775Z,2.47
2022-10-16T12:31:02.380Z,2.35
2022-10-16T12:33:30.870Z,2.63
2022-10-16T12:35:59.115Z,2.40
2022-10-16T12:38:28.436Z,2.47
2022-10-16T12:40:58.818Z,2.35
2022-10-16T12:43:30.086Z,2.45
2022-10-16T12:46:01.603Z,2.30
2022-10-16T12:48:37.016Z,2.40
2022-10-16T12:51:24.363Z,2.20
2022-10-16T12:53:59.961Z,2.42
2022-10-16T12:56:33.493Z,2.30
2022-10-16T12:59:08.897Z,2.50
2022-10-16T13:01:41.639Z,2.50
2022-10-16T13:04:27.053Z,2.60
2022-10-16T13:06:58.020Z,2.50
2022-10-16T13:09:42.279Z,2.83
2022-10-16T13:12:17.237Z,2.38
2022-10-16T13:14:53.452Z,2.63
2022-10-16T13:17:24.529Z,2.45
2022-10-16T13:19:58.118Z,2.53
2022-10-16T13:22:28.954Z,3.20
2022-10-16T13:25:01.980Z,2.80
2022-10-16T13:27:36.367Z,2.67
2022-10-16T13:30:12.678Z,2.58
2022-10-16T13:32:40.657Z,2.38
2022-10-16T13:35:20.004Z,2.90
2022-10-16T13:37:47.663Z,2.85
2022-10-16T13:40:20.771Z,2.60
2022-10-16T13:42:48.726Z,2.85
2022-10-16T13:45:21.116Z,3.13
2022-10-16T13:47:48.979Z,3.22
2022-10-16T13:50:17.656Z,2.60
2022-10-16T13:52:45.254Z,3.42
2022-10-16T13:55:14.115Z,2.80
2022-10-16T13:57:42.044Z,2.90
2022-10-16T14:00:23.693Z,2.65
2022-10-16T14:02:58.374Z,2.85
2022-10-16T14:05:26.516Z,2.80
2022-10-16T14:07:55.811Z,2.70
2022-10-16T14:10:24.943Z,2.80
2022-10-16T14:13:03.651Z,2.83
2022-10-16T14:15:32.049Z,2.75
2022-10-16T14:18:01.328Z,2.88
2022-10-16T14:20:30.950Z,3.25
2022-10-16T14:23:03.109Z,3.63
2022-10-16T14:25:32.589Z,2.72
2022-10-16T14:30:35.673Z,2.60
2022-10-16T14:33:05.726Z,2.90
2022-10-16T14:35:34.251Z,2.72
2022-10-16T14:38:02.990Z,3.22
2022-10-16T14:40:31.539Z,3.25
2022-10-16T14:42:59.711Z,3.10
2022-10-16T14:45:28.908Z,3.00
2022-10-16T14:47:57.890Z,3.00
2022-10-16T14:50:26.916Z,3.22
2022-10-16T14:52:54.483Z,3.50
2022-10-16T14:55:22.248Z,3.08
2022-10-16T14:57:49.951Z,3.13
2022-10-16T15:00:19.423Z,3.33
2022-10-16T15:02:47.149Z,3.10
2022-10-16T15:05:16.518Z,3.30
2022-10-16T15:07:46.353Z,10.15
2022-10-16T15:10:14.097Z,10.27
2022-10-16T15:12:41.975Z,3.45
2022-10-16T15:15:27.453Z,2.80
2022-10-16T15:17:57.485Z,3.08
2022-10-16T15:20:25.658Z,3.00
2022-10-16T15:22:54.617Z,3.10
2022-10-16T15:25:33.734Z,3.30
2022-10-16T15:28:02.031Z,3.30
2022-10-16T15:30:29.882Z,3.40
2022-10-16T15:32:57.783Z,4.00
2022-10-16T15:35:25.540Z,3.30
2022-10-16T15:37:54.564Z,3.20
2022-10-16T15:40:23.493Z,3.13
2022-10-16T15:42:51.159Z,3.00
2022-10-16T15:45:20.021Z,3.53
2022-10-16T15:47:47.637Z,3.90
2022-10-16T15:50:16.160Z,4.30
2022-10-16T15:52:43.860Z,4.03
2022-10-16T15:55:14.003Z,3.90
2022-10-16T15:57:42.321Z,4.05
2022-10-16T16:00:11.451Z,3.90
2022-10-16T16:02:42.588Z,4.38
2022-10-16T16:05:11.599Z,4.13
2022-10-16T16:07:39.483Z,4.15
2022-10-16T16:10:08.397Z,5.07
2022-10-16T16:12:37.728Z,3.67
2022-10-16T16:15:06.209Z,3.72
2022-10-16T16:17:33.781Z,8.10
2022-10-16T16:20:01.360Z,17.73
2022-10-16T16:22:29.650Z,14.10
2022-10-16T16:24:57.350Z,6.95
2022-10-16T16:27:26.217Z,4.45
2022-10-16T16:29:56.197Z,4.32
2022-10-16T16:32:23.844Z,4.10
2022-10-16T16:34:51.420Z,3.80
2022-10-16T16:37:19.029Z,3.67
2022-10-16T16:39:46.572Z,3.63
2022-10-16T16:42:14.139Z,3.63
2022-10-16T16:44:41.678Z,3.78
2022-10-16T16:47:11.431Z,3.45
2022-10-16T16:49:38.950Z,3.72
2022-10-16T16:52:06.590Z,4.07
2022-10-16T16:57:06.644Z,3.70
2022-10-16T16:59:34.518Z,3.50
2022-10-16T17:02:02.353Z,3.42
2022-10-16T17:04:31.217Z,3.38
2022-10-16T17:06:58.734Z,3.10
2022-10-16T17:09:26.321Z,3.00
2022-10-16T17:11:54.255Z,3.22
2022-10-16T17:14:21.793Z,2.95
2022-10-16T17:16:49.843Z,2.83
2022-10-16T17:19:18.638Z,2.97
2022-10-16T17:21:49.488Z,3.20
2022-10-16T17:24:18.397Z,3.00
2022-10-16T17:26:48.937Z,2.83
2022-10-16T17:29:17.991Z,3.30
2022-10-16T17:31:45.940Z,2.95
2022-10-16T17:34:14.108Z,2.72
2022-10-16T17:36:46.776Z,3.00
2022-10-16T17:39:18.016Z,3.10
2022-10-16T17:41:46.239Z,2.92
2022-10-16T17:44:19.734Z,3.60
2022-10-16T17:46:48.191Z,3.63
2022-10-16T17:49:15.718Z,4.28
2022-10-16T17:51:43.437Z,5.00
2022-10-16T17:54:11.620Z,4.93
2022-10-16T17:56:40.531Z,5.10
2022-10-16T17:59:08.462Z,5.95
2022-10-16T18:01:37.269Z,6.38
2022-10-16T18:04:07.138Z,6.75
2022-10-16T18:06:34.998Z,8.95
2022-10-16T18:09:03.018Z,9.85
2022-10-16T18:11:30.833Z,11.93
2022-10-16T18:14:00.191Z,18.05
2022-10-16T18:16:28.436Z,17.38
2022-10-16T18:18:56.956Z,11.38
2022-10-16T18:21:27.261Z,9.43
2022-10-16T18:23:55.127Z,7.10
2022-10-16T18:26:23.084Z,9.27
2022-10-16T18:28:53.217Z,9.07
2022-10-16T18:31:22.949Z,8.77
2022-10-16T18:33:51.271Z,5.75
2022-10-16T18:36:20.178Z,5.38
2022-10-16T18:38:47.744Z,6.55
2022-10-16T18:41:15.590Z,6.30
2022-10-16T18:43:43.249Z,6.63
2022-10-16T18:46:11.412Z,6.75
2022-10-16T18:48:41.153Z,6.82
2022-10-16T18:51:09.873Z,6.28
2022-10-16T18:53:37.485Z,7.80
2022-10-16T18:56:05.516Z,8.13
2022-10-16T18:58:34.210Z,9.02
2022-10-16T19:01:04.264Z,8.57
2022-10-16T19:03:32.123Z,7.93
2022-10-16T19:06:04.636Z,7.15
2022-10-16T19:08:33.675Z,6.82
2022-10-16T19:11:03.820Z,9.23
2022-10-16T19:13:31.521Z,9.85
2022-10-16T19:16:09.460Z,8.32
2022-10-16T19:18:44.177Z,9.20
2022-10-16T19:21:13.861Z,10.77
2022-10-16T19:23:41.786Z,14.88
2022-10-16T19:26:10.339Z,14.43
2022-10-16T19:28:38.298Z,13.75
2022-10-16T19:31:06.731Z,14.25
2022-10-16T19:33:34.659Z,15.52
2022-10-16T19:36:09.126Z,14.68
2022-10-16T19:38:38.107Z,15.05
2022-10-16T19:41:06.647Z,15.15
2022-10-16T19:43:34.328Z,16.65
2022-10-16T19:46:04.117Z,16.38
2022-10-16T19:48:31.807Z,15.32
2022-10-16T19:50:59.581Z,15.80
2022-10-16T19:53:28.405Z,16.63
2022-10-16T19:55:57.669Z,15.25
2022-10-16T19:58:25.448Z,15.68
2022-10-16T20:00:54.247Z,14.93
2022-10-16T20:03:22.007Z,16.27
2022-10-16T20:05:52.881Z,19.17
2022-10-16T20:08:20.896Z,20.48
2022-10-16T20:10:49.033Z,19.65
2022-10-16T20:13:18.286Z,16.63
2022-10-16T20:15:45.858Z,16.45
2022-10-16T20:18:13.517Z,15.38
2022-10-16T20:20:41.977Z,15.25
2022-10-16T20:23:10.292Z,18.20
2022-10-16T20:25:38.116Z,18.65
2022-10-16T20:28:05.790Z,17.40
2022-10-16T20:30:36.718Z,16.45
2022-10-16T20:33:04.782Z,13.90
2022-10-16T20:35:36.246Z,13.15
2022-10-16T20:38:03.907Z,12.50
2022-10-16T20:40:31.587Z,13.00
2022-10-16T20:42:59.199Z,11.65
2022-10-16T20:45:26.736Z,10.90
2022-10-16T20:47:55.863Z,8.98
2022-10-16T20:50:23.418Z,8.68
2022-10-16T20:52:50.961Z,8.07
2022-10-16T20:55:18.512Z,7.45
2022-10-16T20:57:46.039Z,8.32
2022-10-16T21:00:14.377Z,16.90
2022-10-16T21:02:41.881Z,12.48
2022-10-16T21:05:11.016Z,9.10
2022-10-16T21:07:38.508Z,8.25
2022-10-16T21:10:06.472Z,8.63
2022-10-16T21:12:34.202Z,7.90
2022-10-16T21:15:14.374Z,8.50
2022-10-16T21:17:42.964Z,8.70
2022-10-16T21:20:12.357Z,8.27
2022-10-16T21:22:40.030Z,7.80
2022-10-16T21:25:07.925Z,6.30
2022-10-16T21:27:37.309Z,5.53
2022-10-16T21:30:05.273Z,6.63
2022-10-16T21:32:32.810Z,6.03
2022-10-16T21:35:00.352Z,4.75
2022-10-16T21:37:29.193Z,4.65
2022-10-16T21:39:56.952Z,4.72
2022-10-16T21:42:24.864Z,4.50
2022-10-16T21:44:52.832Z,4.50
2022-10-16T21:47:20.362Z,4.78
2022-10-16T21:49:47.954Z,4.45
2022-10-16T21:52:16.036Z,4.45
2022-10-16T21:54:45.344Z,5.05
2022-10-16T21:57:12.923Z,5.43
2022-10-16T21:59:40.398Z,4.75
2022-10-16T22:02:08.369Z,5.25
2022-10-16T22:04:36.236Z,5.18
2022-10-16T22:07:03.860Z,4.60
2022-10-16T22:09:31.449Z,4.40
2022-10-16T22:12:00.428Z,4.78
2022-10-16T22:14:28.090Z,4.68
2022-10-16T22:16:55.808Z,5.15
2022-10-16T22:19:23.457Z,4.38
2022-10-16T22:21:54.367Z,4.80
2022-10-16T22:24:22.151Z,5.20
2022-10-16T22:26:50.183Z,4.10
2022-10-16T22:29:19.298Z,4.38
2022-10-16T22:31:46.806Z,4.65
2022-10-16T22:34:15.029Z,4.38
2022-10-16T22:36:42.672Z,4.25
2022-10-16T22:39:10.679Z,3.63
2022-10-16T22:41:38.179Z,3.63
2022-10-16T22:44:05.867Z,4.20
2022-10-16T22:46:34.732Z,3.67
2022-10-16T22:49:02.227Z,3.40
2022-10-16T22:51:29.804Z,3.33
2022-10-16T22:53:58.369Z,4.28
2022-10-16T22:56:26.136Z,3.92
2022-10-16T22:58:53.760Z,4.10
2022-10-16T23:01:22.851Z,3.70
2022-10-16T23:03:51.769Z,3.45
2022-10-16T23:06:19.424Z,3.55
2022-10-16T23:08:50.971Z,3.72
2022-10-16T23:11:18.494Z,3.78
2022-10-16T23:13:46.137Z,4.68
2022-10-16T23:16:14.466Z,4.25
2022-10-16T23:18:42.507Z,3.40
2022-10-16T23:21:12.573Z,3.40
2022-10-16T23:23:40.981Z,3.72
2022-10-16T23:26:09.668Z,3.72
2022-10-16T23:28:37.335Z,3.47
2022-10-16T23:31:05.268Z,3.38
2022-10-16T23:33:32.901Z,3.85
2022-10-16T23:36:00.833Z,3.80
2022-10-16T23:38:30.097Z,3.13
2022-10-16T23:40:57.643Z,3.55
2022-10-16T23:43:25.147Z,4.00
2022-10-16T23:45:52.705Z,4.35
2022-10-16T23:48:20.351Z,3.72
2022-10-16T23:50:47.933Z,3.88
2022-10-16T23:53:16.360Z,3.40
2022-10-16T23:55:45.297Z,3.50
2022-10-16T23:58:12.863Z,3.83
